Main page
METAR-TAF:

METAR-TAF

Airports :

Madera Municipal Airport

Madera, California, United States

latitude: 36-59-12N, longitude: 120-06-39W, elevation: 253 ft

Current weather observation

The report was made 1 hour and 24 minutes ago, at 21:53 UTC
Wind 7 mph from variable directions
Temperature 102°F
Humidity 23%
Pressure 29.84 in. Hg
Visibility: 10 miles
Clear sky

METAR: KMAE 132153Z AUTO VRB06KT 10SM CLR 39/14 A2984 RMK AO2 SLP100 T03890144

Time: 16:17 (23:17 UTC)


TAF: missing

Weather observations and forecasts of more than 4000 airports (METAR and TAF reports).

The available stations are represented by yellow and red dots on the map.

Hover mouse over dot to see the name of the station.

Then click to see weather observations and forecasts.

To change the map : click on the green buttons with a black cross to zoom in, on the green button with a dash to zoom out, or on the green arrows for adjacent maps.


METAR-TAF: